sensor_id;sensor_type;location;lat;lon;timestamp;pressure;altitude;pressure_sealevel;temperature;humidity
48352;BME280;34163;49.314;6.752;2023-02-10T03:14:55;101646.91;;;5.95;100.00
48352;BME280;34163;49.314;6.752;2023-02-10T03:17:23;101650.47;;;5.97;100.00
48352;BME280;34163;49.314;6.752;2023-02-10T03:19:51;101649.59;;;5.98;100.00
48352;BME280;34163;49.314;6.752;2023-02-10T03:22:17;101657.53;;;6.02;100.00
48352;BME280;34163;49.314;6.752;2023-02-10T03:24:42;101663.66;;;6.04;100.00
48352;BME280;34163;49.314;6.752;2023-02-10T03:27:07;101660.13;;;6.05;100.00
48352;BME280;34163;49.314;6.752;2023-02-10T03:29:33;101662.78;;;6.06;100.00
48352;BME280;34163;49.314;6.752;2023-02-10T03:31:58;101667.19;;;6.07;100.00
48352;BME280;34163;49.314;6.752;2023-02-10T03:34:26;101661.94;;;6.09;100.00
48352;BME280;34163;49.314;6.752;2023-02-10T03:36:51;101662.81;;;6.11;100.00
48352;BME280;34163;49.314;6.752;2023-02-10T03:39:20;101652.28;;;6.11;100.00
48352;BME280;34163;49.314;6.752;2023-02-10T03:41:51;101655.81;;;6.13;100.00
48352;BME280;34163;49.314;6.752;2023-02-10T03:44:53;101656.69;;;6.13;100.00
48352;BME280;34163;49.314;6.752;2023-02-10T04:04:00;101685.69;;;6.21;100.00
48352;BME280;34163;49.314;6.752;2023-02-10T04:06:56;101682.19;;;6.24;100.00
48352;BME280;34163;49.314;6.752;2023-02-10T04:09:50;101686.59;;;6.25;100.00
48352;BME280;34163;49.314;6.752;2023-02-10T04:16:20;101681.31;;;6.26;100.00
48352;BME280;34163;49.314;6.752;2023-02-10T04:18:33;101691.88;;;6.28;100.00
48352;BME280;34163;49.314;6.752;2023-02-10T04:21:03;101691.88;;;6.28;100.00
48352;BME280;34163;49.314;6.752;2023-02-10T09:04:52;101816.34;;;6.08;100.00
48352;BME280;34163;49.314;6.752;2023-02-10T09:07:22;101811.94;;;6.09;100.00
48352;BME280;34163;49.314;6.752;2023-02-10T09:09:47;101821.66;;;6.13;100.00
48352;BME280;34163;49.314;6.752;2023-02-10T09:12:12;101821.66;;;6.13;100.00
48352;BME280;34163;49.314;6.752;2023-02-10T09:14:40;101822.53;;;6.15;100.00
48352;BME280;34163;49.314;6.752;2023-02-10T09:17:08;101817.28;;;6.15;100.00
48352;BME280;34163;49.314;6.752;2023-02-10T09:20:26;101825.19;;;6.16;100.00
48352;BME280;34163;49.314;6.752;2023-02-10T09:29:02;101834.84;;;6.22;100.00
48352;BME280;34163;49.314;6.752;2023-02-10T09:31:28;101835.78;;;6.24;100.00
48352;BME280;34163;49.314;6.752;2023-02-10T09:33:53;101833.16;;;6.26;100.00
48352;BME280;34163;49.314;6.752;2023-02-10T09:36:31;101832.25;;;6.25;100.00
48352;BME280;34163;49.314;6.752;2023-02-10T09:39:17;101829.63;;;6.28;100.00
48352;BME280;34163;49.314;6.752;2023-02-10T09:53:47;101831.47;;;6.37;100.00
48352;BME280;34163;49.314;6.752;2023-02-10T09:56:20;101831.47;;;6.37;100.00
48352;BME280;34163;49.314;6.752;2023-02-10T09:58:55;101835.00;;;6.39;100.00
48352;BME280;34163;49.314;6.752;2023-02-10T10:01:47;101840.28;;;6.41;100.00
48352;BME280;34163;49.314;6.752;2023-02-10T10:04:28;101843.75;;;6.40;100.00
48352;BME280;34163;49.314;6.752;2023-02-10T10:07:11;101843.78;;;6.41;100.00
48352;BME280;34163;49.314;6.752;2023-02-10T10:09:43;101851.69;;;6.44;100.00
48352;BME280;34163;49.314;6.752;2023-02-10T10:12:16;101852.59;;;6.43;100.00
48352;BME280;34163;49.314;6.752;2023-02-10T10:14:55;101851.72;;;6.46;100.00
48352;BME280;34163;49.314;6.752;2023-02-10T10:30:55;101851.75;;;6.49;100.00
48352;BME280;34163;49.314;6.752;2023-02-10T10:34:08;101844.72;;;6.51;100.00
48352;BME280;34163;49.314;6.752;2023-02-10T10:36:14;101843.00;;;6.53;100.00
48352;BME280;34163;49.314;6.752;2023-02-10T10:38:49;101847.38;;;6.54;100.00
48352;BME280;34163;49.314;6.752;2023-02-10T10:41:15;101837.75;;;6.54;100.00
48352;BME280;34163;49.314;6.752;2023-02-10T10:43:49;101838.63;;;6.57;100.00
48352;BME280;34163;49.314;6.752;2023-02-10T10:48:58;101831.59;;;6.57;100.00
48352;BME280;34163;49.314;6.752;2023-02-10T10:51:23;101840.69;;;5.90;100.00
48352;BME280;34163;49.314;6.752;2023-02-10T10:53:51;101843.25;;;5.00;100.00
48352;BME280;34163;49.314;6.752;2023-02-10T10:56:26;101843.63;;;4.65;100.00
48352;BME280;34163;49.314;6.752;2023-02-10T10:58:54;101843.31;;;4.43;100.00
48352;BME280;34163;49.314;6.752;2023-02-10T11:01:30;101834.38;;;4.32;100.00
48352;BME280;34163;49.314;6.752;2023-02-10T11:06:33;101835.75;;;4.08;100.00
48352;BME280;34163;49.314;6.752;2023-02-10T11:09:00;101824.28;;;4.02;100.00
48352;BME280;34163;49.314;6.752;2023-02-10T11:11:33;101832.91;;;3.94;100.00
48352;BME280;34163;49.314;6.752;2023-02-10T11:13:59;101835.47;;;3.90;100.00
48352;BME280;34163;49.314;6.752;2023-02-10T11:16:25;101831.84;;;3.81;100.00
48352;BME280;34163;49.314;6.752;2023-02-10T11:18:58;101827.38;;;3.77;100.00
48352;BME280;34163;49.314;6.752;2023-02-10T11:21:34;101832.47;;;3.70;100.00
48352;BME280;34163;49.314;6.752;2023-02-10T11:24:00;101830.69;;;3.67;100.00
48352;BME280;34163;49.314;6.752;2023-02-10T11:26:26;101828.94;;;3.66;100.00
48352;BME280;34163;49.314;6.752;2023-02-10T11:28:54;101831.44;;;3.60;100.00
48352;BME280;34163;49.314;6.752;2023-02-10T11:31:30;101826.19;;;3.60;100.00
48352;BME280;34163;49.314;6.752;2023-02-10T11:39:55;101818.97;;;3.47;100.00
48352;BME280;34163;49.314;6.752;2023-02-10T11:47:38;101824.09;;;3.40;100.00
48352;BME280;34163;49.314;6.752;2023-02-10T11:50:03;101817.91;;;3.37;100.00
48352;BME280;34163;49.314;6.752;2023-02-10T11:52:29;101820.50;;;3.35;100.00
48352;BME280;34163;49.314;6.752;2023-02-10T12:00:53;101823.78;;;3.25;100.00
48352;BME280;34163;49.314;6.752;2023-02-10T12:08:50;101818.47;;;3.22;100.00
48352;BME280;34163;49.314;6.752;2023-02-10T12:14:24;101830.59;;;3.17;100.00
48352;BME280;34163;49.314;6.752;2023-02-10T12:28:45;101813.88;;;3.10;100.00
48352;BME280;34163;49.314;6.752;2023-02-10T12:36:08;101811.16;;;3.05;100.00
48352;BME280;34163;49.314;6.752;2023-02-10T12:54:19;101809.84;;;4.91;100.00
48352;BME280;34163;49.314;6.752;2023-02-10T12:56:56;101801.25;;;5.04;100.00
48352;BME280;34163;49.314;6.752;2023-02-10T12:59:27;101803.13;;;5.16;100.00
48352;BME280;34163;49.314;6.752;2023-02-10T13:01:59;101804.09;;;5.24;100.00
48352;BME280;34163;49.314;6.752;2023-02-10T13:04:29;101800.72;;;5.33;100.00
48352;BME280;34163;49.314;6.752;2023-02-10T13:07:00;101804.28;;;5.40;100.00
48352;BME280;34163;49.314;6.752;2023-02-10T13:12:38;101804.44;;;5.55;100.00
48352;BME280;34163;49.314;6.752;2023-02-10T13:15:18;101807.09;;;5.61;100.00
48352;BME280;34163;49.314;6.752;2023-02-10T13:17:47;101809.78;;;5.66;100.00
48352;BME280;34163;49.314;6.752;2023-02-10T13:20:27;101805.47;;;5.71;100.00
48352;BME280;34163;49.314;6.752;2023-02-10T13:36:22;101788.13;;;5.95;100.00
48352;BME280;34163;49.314;6.752;2023-02-10T13:41:39;101778.56;;;6.02;100.00
48352;BME280;34163;49.314;6.752;2023-02-10T13:44:22;101786.47;;;6.05;100.00
48352;BME280;34163;49.314;6.752;2023-02-10T13:46:52;101775.94;;;6.06;100.00
48352;BME280;34163;49.314;6.752;2023-02-10T13:49:19;101775.09;;;6.09;100.00
48352;BME280;34163;49.314;6.752;2023-02-10T13:52:20;101771.63;;;6.13;100.00
48352;BME280;34163;49.314;6.752;2023-02-10T13:54:59;101770.75;;;6.15;100.00
48352;BME280;34163;49.314;6.752;2023-02-10T14:00:04;101770.78;;;6.18;100.00
48352;BME280;34163;49.314;6.752;2023-02-10T14:02:30;101770.81;;;6.22;100.00
48352;BME280;34163;49.314;6.752;2023-02-10T14:04:57;101771.69;;;6.24;100.00
48352;BME280;34163;49.314;6.752;2023-02-10T14:12:58;101763.84;;;6.30;100.00
48352;BME280;34163;49.314;6.752;2023-02-10T14:15:56;101767.38;;;6.32;100.00
48352;BME280;34163;49.314;6.752;2023-02-10T14:18:27;101755.09;;;6.34;100.00
48352;BME280;34163;49.314;6.752;2023-02-10T14:20:55;101744.56;;;6.35;100.00
48352;BME280;34163;49.314;6.752;2023-02-10T14:23:35;101746.31;;;6.35;100.00
48352;BME280;34163;49.314;6.752;2023-02-10T14:26:02;101753.38;;;6.39;100.00
48352;BME280;34163;49.314;6.752;2023-02-10T14:28:29;101756.88;;;6.40;100.00
48352;BME280;34163;49.314;6.752;2023-02-10T14:31:00;101751.59;;;6.41;100.00
48352;BME280;34163;49.314;6.752;2023-02-10T14:33:27;101746.38;;;6.44;100.00
48352;BME280;34163;49.314;6.752;2023-02-10T14:35:54;101742.84;;;6.44;100.00
48352;BME280;34163;49.314;6.752;2023-02-10T14:38:28;101743.75;;;6.46;100.00
48352;BME280;34163;49.314;6.752;2023-02-10T14:40:54;101741.13;;;6.49;100.00
48352;BME280;34163;49.314;6.752;2023-02-10T14:43:25;101735.00;;;6.50;100.00
48352;BME280;34163;49.314;6.752;2023-02-10T14:45:51;101735.88;;;6.52;100.00
48352;BME280;34163;49.314;6.752;2023-02-10T14:48:19;101733.25;;;6.52;100.00
48352;BME280;34163;49.314;6.752;2023-02-10T14:50:55;101732.38;;;6.53;100.00
48352;BME280;34163;49.314;6.752;2023-02-10T14:53:21;101724.50;;;6.56;100.00
48352;BME280;34163;49.314;6.752;2023-02-10T14:55:47;101726.22;;;6.55;100.00
48352;BME280;34163;49.314;6.752;2023-02-10T14:58:20;101735.91;;;6.57;100.00
48352;BME280;34163;49.314;6.752;2023-02-10T15:00:54;101729.50;;;6.11;100.00
48352;BME280;34163;49.314;6.752;2023-02-10T15:03:23;101733.88;;;5.11;100.00
48352;BME280;34163;49.314;6.752;2023-02-10T15:05:52;101736.06;;;4.71;100.00
48352;BME280;34163;49.314;6.752;2023-02-10T15:08:21;101743.75;;;4.57;100.00
48352;BME280;34163;49.314;6.752;2023-02-10T15:10:49;101747.06;;;4.42;100.00
48352;BME280;34163;49.314;6.752;2023-02-10T15:13:19;101748.69;;;4.32;100.00
48352;BME280;34163;49.314;6.752;2023-02-10T15:15:46;101744.13;;;4.21;100.00
48352;BME280;34163;49.314;6.752;2023-02-10T15:18:27;101744.81;;;4.07;100.00
48352;BME280;34163;49.314;6.752;2023-02-10T15:20:55;101739.44;;;3.99;100.00
48352;BME280;34163;49.314;6.752;2023-02-10T15:23:20;101733.22;;;3.93;100.00
48352;BME280;34163;49.314;6.752;2023-02-10T15:25:47;101741.91;;;3.90;100.00
48352;BME280;34163;49.314;6.752;2023-02-10T15:28:26;101745.34;;;3.85;100.00
48352;BME280;34163;49.314;6.752;2023-02-10T15:31:18;101742.66;;;3.81;100.00
48352;BME280;34163;49.314;6.752;2023-02-10T15:33:50;101729.44;;;3.75;100.00
48352;BME280;34163;49.314;6.752;2023-02-10T15:36:23;101726.72;;;3.69;100.00
48352;BME280;34163;49.314;6.752;2023-02-10T15:47:42;101729.06;;;3.54;100.00
48352;BME280;34163;49.314;6.752;2023-02-10T15:50:25;101718.53;;;3.51;100.00
48352;BME280;34163;49.314;6.752;2023-02-10T15:52:52;101710.63;;;3.48;100.00
48352;BME280;34163;49.314;6.752;2023-02-10T15:55:51;101712.34;;;3.45;100.00
48352;BME280;34163;49.314;6.752;2023-02-10T15:58:13;101721.94;;;3.43;100.00
48352;BME280;34163;49.314;6.752;2023-02-10T16:00:51;101713.19;;;3.44;100.00
48352;BME280;34163;49.314;6.752;2023-02-10T16:03:16;101715.75;;;3.41;100.00
48352;BME280;34163;49.314;6.752;2023-02-10T16:08:59;101713.88;;;3.33;100.00
48352;BME280;34163;49.314;6.752;2023-02-10T16:11:24;101713.88;;;3.33;100.00
48352;BME280;34163;49.314;6.752;2023-02-10T16:13:53;101708.59;;;3.31;100.00
48352;BME280;34163;49.314;6.752;2023-02-10T16:16:18;101705.97;;;3.31;100.00
48352;BME280;34163;49.314;6.752;2023-02-10T16:18:43;101700.69;;;3.28;100.00
48352;BME280;34163;49.314;6.752;2023-02-10T16:21:12;101707.66;;;3.27;100.00
48352;BME280;34163;49.314;6.752;2023-02-10T16:24:00;101708.50;;;3.26;100.00
48352;BME280;34163;49.314;6.752;2023-02-10T16:26:36;101712.00;;;3.24;100.00
48352;BME280;34163;49.314;6.752;2023-02-10T16:29:04;101695.34;;;3.22;100.00
48352;BME280;34163;49.314;6.752;2023-02-10T16:31:29;101692.72;;;3.22;100.00
48352;BME280;34163;49.314;6.752;2023-02-10T16:33:55;101708.38;;;3.19;100.00
48352;BME280;34163;49.314;6.752;2023-02-10T16:36:20;101704.84;;;3.17;100.00
48352;BME280;34163;49.314;6.752;2023-02-10T16:38:45;101714.44;;;3.15;100.00
48352;BME280;34163;49.314;6.752;2023-02-10T16:41:13;101723.22;;;3.18;100.00
48352;BME280;34163;49.314;6.752;2023-02-10T16:43:41;101725.81;;;3.17;100.00
48352;BME280;34163;49.314;6.752;2023-02-10T16:46:17;101728.44;;;3.17;100.00
48352;BME280;34163;49.314;6.752;2023-02-10T16:48:51;101724.03;;;3.16;100.00
48352;BME280;34163;49.314;6.752;2023-02-10T16:51:22;101736.22;;;3.14;100.00
48352;BME280;34163;49.314;6.752;2023-02-10T16:53:56;101721.34;;;3.09;100.00
48352;BME280;34163;49.314;6.752;2023-02-10T16:56:25;101727.41;;;3.08;100.00
48352;BME280;34163;49.314;6.752;2023-02-10T17:01:42;101739.66;;;3.09;100.00
48352;BME280;34163;49.314;6.752;2023-02-10T17:04:08;101743.97;;;3.07;100.00
48352;BME280;34163;49.314;6.752;2023-02-10T17:06:34;101747.50;;;3.08;100.00
48352;BME280;34163;49.314;6.752;2023-02-10T17:09:00;101748.31;;;3.05;100.00
48352;BME280;34163;49.314;6.752;2023-02-10T17:11:26;101748.34;;;3.07;100.00
48352;BME280;34163;49.314;6.752;2023-02-10T17:13:51;101751.75;;;3.04;100.00
48352;BME280;34163;49.314;6.752;2023-02-10T17:19:29;101754.34;;;3.03;100.00
48352;BME280;34163;49.314;6.752;2023-02-10T17:21:57;101756.06;;;3.01;100.00
48352;BME280;34163;49.314;6.752;2023-02-10T17:27:20;101750.84;;;4.03;100.00
48352;BME280;34163;49.314;6.752;2023-02-10T17:29:46;101751.28;;;4.34;100.00
48352;BME280;34163;49.314;6.752;2023-02-10T17:32:14;101750.72;;;4.55;100.00
48352;BME280;34163;49.314;6.752;2023-02-10T17:34:40;101743.91;;;4.69;100.00
48352;BME280;34163;49.314;6.752;2023-02-10T17:37:15;101751.03;;;4.81;100.00
48352;BME280;34163;49.314;6.752;2023-02-10T17:39:40;101751.19;;;4.92;100.00
48352;BME280;34163;49.314;6.752;2023-02-10T17:42:06;101750.38;;;4.99;100.00
48352;BME280;34163;49.314;6.752;2023-02-10T17:44:31;101754.88;;;5.08;100.00
48352;BME280;34163;49.314;6.752;2023-02-10T17:46:57;101754.94;;;5.14;100.00
48352;BME280;34163;49.314;6.752;2023-02-10T17:49:27;101755.88;;;5.19;100.00
48352;BME280;34163;49.314;6.752;2023-02-10T17:51:53;101753.31;;;5.25;100.00
48352;BME280;34163;49.314;6.752;2023-02-10T17:54:21;101759.47;;;5.31;100.00
48352;BME280;34163;49.314;6.752;2023-02-10T17:56:49;101761.31;;;5.36;100.00
48352;BME280;34163;49.314;6.752;2023-02-10T17:59:17;101762.22;;;5.40;100.00
48352;BME280;34163;49.314;6.752;2023-02-10T18:01:47;101759.63;;;5.44;100.00
48352;BME280;34163;49.314;6.752;2023-02-10T18:04:30;101759.69;;;5.51;100.00
48352;BME280;34163;49.314;6.752;2023-02-10T18:06:55;101769.34;;;5.53;100.00
48352;BME280;34163;49.314;6.752;2023-02-10T18:09:21;101765.00;;;5.57;100.00
48352;BME280;34163;49.314;6.752;2023-02-10T18:12:02;101761.53;;;5.61;100.00
48352;BME280;34163;49.314;6.752;2023-02-10T18:14:32;101762.44;;;5.64;100.00
48352;BME280;34163;49.314;6.752;2023-02-10T18:16:58;101766.00;;;5.70;100.00
48352;BME280;34163;49.314;6.752;2023-02-10T18:19:24;101768.66;;;5.71;100.00
48352;BME280;34163;49.314;6.752;2023-02-10T18:21:51;101768.66;;;5.74;100.00
48352;BME280;34163;49.314;6.752;2023-02-10T18:24:17;101771.31;;;5.77;100.00
48352;BME280;34163;49.314;6.752;2023-02-10T18:26:51;101771.34;;;5.82;100.00
48352;BME280;34163;49.314;6.752;2023-02-10T18:29:24;101776.63;;;5.85;100.00
48352;BME280;34163;49.314;6.752;2023-02-10T18:31:49;101779.28;;;5.87;100.00
48352;BME280;34163;49.314;6.752;2023-02-10T18:34:14;101779.31;;;5.90;100.00
48352;BME280;34163;49.314;6.752;2023-02-10T18:36:45;101780.22;;;5.93;100.00
48352;BME280;34163;49.314;6.752;2023-02-10T18:39:21;101783.75;;;5.95;100.00
48352;BME280;34163;49.314;6.752;2023-02-10T18:41:46;101782.03;;;5.97;100.00
48352;BME280;34163;49.314;6.752;2023-02-10T18:44:12;101784.69;;;5.99;100.00
48352;BME280;34163;49.314;6.752;2023-02-10T18:49:33;101778.56;;;6.05;100.00
48352;BME280;34163;49.314;6.752;2023-02-10T18:51:58;101783.84;;;6.06;100.00
48352;BME280;34163;49.314;6.752;2023-02-10T18:54:23;101784.75;;;6.07;100.00
48352;BME280;34163;49.314;6.752;2023-02-10T18:57:17;101791.78;;;6.09;100.00
48352;BME280;34163;49.314;6.752;2023-02-10T18:59:43;101785.66;;;6.10;100.00
48352;BME280;34163;49.314;6.752;2023-02-10T19:02:09;101790.06;;;6.13;100.00
48352;BME280;34163;49.314;6.752;2023-02-10T19:04:36;101787.44;;;6.13;100.00
48352;BME280;34163;49.314;6.752;2023-02-10T19:10:05;101800.63;;;6.17;100.00
48352;BME280;34163;49.314;6.752;2023-02-10T19:12:30;101790.13;;;6.19;100.00
48352;BME280;34163;49.314;6.752;2023-02-10T19:14:55;101796.25;;;6.21;100.00
48352;BME280;34163;49.314;6.752;2023-02-10T19:17:21;101788.34;;;6.20;100.00
48352;BME280;34163;49.314;6.752;2023-02-10T19:19:48;101782.22;;;6.22;100.00
48352;BME280;34163;49.314;6.752;2023-02-10T19:22:19;101783.97;;;6.23;100.00
48352;BME280;34163;49.314;6.752;2023-02-10T19:24:45;101775.22;;;6.24;100.00
48352;BME280;34163;49.314;6.752;2023-02-10T19:30:10;101780.50;;;6.27;100.00
48352;BME280;34163;49.314;6.752;2023-02-10T19:32:41;101786.66;;;6.29;100.00
48352;BME280;34163;49.314;6.752;2023-02-10T19:35:06;101784.91;;;6.30;100.00
48352;BME280;34163;49.314;6.752;2023-02-10T19:37:35;101789.31;;;6.32;100.00
48352;BME280;34163;49.314;6.752;2023-02-10T19:40:03;101777.91;;;6.32;100.00
48352;BME280;34163;49.314;6.752;2023-02-10T19:42:34;101788.44;;;6.32;100.00
48352;BME280;34163;49.314;6.752;2023-02-10T19:45:03;101795.44;;;6.33;100.00
48352;BME280;34163;49.314;6.752;2023-02-10T19:47:29;101785.81;;;6.35;100.00
48352;BME280;34163;49.314;6.752;2023-02-10T19:49:55;101791.97;;;6.35;100.00
48352;BME280;34163;49.314;6.752;2023-02-10T19:55:25;101790.22;;;6.38;100.00
48352;BME280;34163;49.314;6.752;2023-02-10T19:57:51;101784.97;;;6.39;100.00
48352;BME280;34163;49.314;6.752;2023-02-10T20:00:18;101784.97;;;6.41;100.00
48352;BME280;34163;49.314;6.752;2023-02-10T20:02:44;101780.56;;;6.40;100.00
48352;BME280;34163;49.314;6.752;2023-02-10T20:05:27;101777.94;;;6.41;100.00
48352;BME280;34163;49.314;6.752;2023-02-10T20:07:55;101778.84;;;6.42;100.00
48352;BME280;34163;49.314;6.752;2023-02-10T20:10:36;101766.53;;;6.41;100.00
48352;BME280;34163;49.314;6.752;2023-02-10T20:13:05;101770.06;;;6.43;100.00
48352;BME280;34163;49.314;6.752;2023-02-10T20:15:40;101778.88;;;6.46;100.00
48352;BME280;34163;49.314;6.752;2023-02-10T20:18:23;101778.88;;;6.46;100.00
48352;BME280;34163;49.314;6.752;2023-02-10T20:20:53;101771.84;;;6.47;100.00
48352;BME280;34163;49.314;6.752;2023-02-10T20:23:27;101772.72;;;6.49;100.00
48352;BME280;34163;49.314;6.752;2023-02-10T20:25:53;101764.59;;;6.10;100.00
48352;BME280;34163;49.314;6.752;2023-02-10T20:28:28;101774.13;;;5.07;100.00
48352;BME280;34163;49.314;6.752;2023-02-10T20:31:04;101776.16;;;4.61;100.00
48352;BME280;34163;49.314;6.752;2023-02-10T20:33:35;101776.78;;;4.41;100.00
48352;BME280;34163;49.314;6.752;2023-02-10T20:36:09;101782.78;;;4.34;100.00
48352;BME280;34163;49.314;6.752;2023-02-10T20:38:37;101792.19;;;4.19;100.00
48352;BME280;34163;49.314;6.752;2023-02-10T20:41:04;101788.56;;;4.10;100.00
48352;BME280;34163;49.314;6.752;2023-02-10T20:44:00;101779.66;;;4.00;100.00
48352;BME280;34163;49.314;6.752;2023-02-10T20:46:44;101783.88;;;3.90;100.00
48352;BME280;34163;49.314;6.752;2023-02-10T20:49:11;101774.13;;;3.81;100.00
48352;BME280;34163;49.314;6.752;2023-02-10T20:51:36;101779.31;;;3.77;100.00
48352;BME280;34163;49.314;6.752;2023-02-10T20:54:02;101782.72;;;3.73;100.00
48352;BME280;34163;49.314;6.752;2023-02-10T20:56:27;101771.31;;;3.71;100.00
48352;BME280;34163;49.314;6.752;2023-02-10T20:58:59;101769.44;;;3.63;100.00
48352;BME280;34163;49.314;6.752;2023-02-10T21:04:52;101773.66;;;3.55;100.00
48352;BME280;34163;49.314;6.752;2023-02-10T21:07:20;101770.06;;;3.49;100.00
48352;BME280;34163;49.314;6.752;2023-02-10T21:09:45;101772.69;;;3.49;100.00
48352;BME280;34163;49.314;6.752;2023-02-10T21:12:11;101769.19;;;3.48;100.00
48352;BME280;34163;49.314;6.752;2023-02-10T21:15:05;101776.94;;;3.42;100.00
48352;BME280;34163;49.314;6.752;2023-02-10T21:17:30;101769.84;;;3.38;100.00
48352;BME280;34163;49.314;6.752;2023-02-10T21:19:58;101768.97;;;3.36;100.00
48352;BME280;34163;49.314;6.752;2023-02-10T21:22:44;101765.47;;;3.35;100.00
48352;BME280;34163;49.314;6.752;2023-02-10T21:25:08;101761.81;;;3.28;100.00
48352;BME280;34163;49.314;6.752;2023-02-10T21:27:37;101760.94;;;3.28;100.00
48352;BME280;34163;49.314;6.752;2023-02-10T21:30:04;101760.91;;;3.26;100.00
48352;BME280;34163;49.314;6.752;2023-02-10T21:35:54;101762.75;;;3.31;100.00
48352;BME280;34163;49.314;6.752;2023-02-10T21:38:21;101764.41;;;3.27;100.00
48352;BME280;34163;49.314;6.752;2023-02-10T21:40:47;101767.00;;;3.25;100.00
48352;BME280;34163;49.314;6.752;2023-02-10T21:43:34;101768.59;;;3.17;100.00
48352;BME280;34163;49.314;6.752;2023-02-10T21:46:18;101765.94;;;3.16;100.00
48352;BME280;34163;49.314;6.752;2023-02-10T21:48:43;101765.16;;;3.20;100.00
48352;BME280;34163;49.314;6.752;2023-02-10T21:53:44;101767.66;;;3.14;100.00
48352;BME280;34163;49.314;6.752;2023-02-10T21:59:01;101764.97;;;3.11;100.00
48352;BME280;34163;49.314;6.752;2023-02-10T22:01:36;101769.31;;;3.08;100.00
48352;BME280;34163;49.314;6.752;2023-02-10T22:04:02;101767.47;;;3.04;100.00
48352;BME280;34163;49.314;6.752;2023-02-10T22:06:44;101760.53;;;3.05;100.00
48352;BME280;34163;49.314;6.752;2023-02-10T22:09:35;101742.88;;;2.96;100.00
48352;BME280;34163;49.314;6.752;2023-02-10T22:15:05;101744.06;;;3.12;100.00
48352;BME280;34163;49.314;6.752;2023-02-10T22:17:48;101735.50;;;3.71;100.00
48352;BME280;34163;49.314;6.752;2023-02-10T22:23:22;101726.97;;;4.46;100.00
48352;BME280;34163;49.314;6.752;2023-02-10T22:25:50;101728.19;;;4.72;100.00
48352;BME280;34163;49.314;6.752;2023-02-10T22:28:26;101741.44;;;4.85;100.00
48352;BME280;34163;49.314;6.752;2023-02-10T22:31:03;101733.66;;;4.93;100.00
48352;BME280;34163;49.314;6.752;2023-02-10T22:33:36;101714.59;;;5.07;100.00
48352;BME280;34163;49.314;6.752;2023-02-10T22:36:13;101709.34;;;5.12;100.00
48352;BME280;34163;49.314;6.752;2023-02-10T22:38:39;101705.97;;;5.22;100.00
48352;BME280;34163;49.314;6.752;2023-02-10T22:41:14;101708.63;;;5.25;100.00
48352;BME280;34163;49.314;6.752;2023-02-10T22:43:40;101706.09;;;5.35;100.00
48352;BME280;34163;49.314;6.752;2023-02-10T22:46:08;101708.72;;;5.36;100.00
48352;BME280;34163;49.314;6.752;2023-02-10T22:51:54;101708.84;;;5.52;100.00
48352;BME280;34163;49.314;6.752;2023-02-10T22:54:34;101716.75;;;5.53;100.00
48352;BME280;34163;49.314;6.752;2023-02-10T22:57:00;101714.16;;;5.58;100.00
48352;BME280;34163;49.314;6.752;2023-02-10T22:59:25;101713.34;;;5.63;100.00
48352;BME280;34163;49.314;6.752;2023-02-10T23:01:50;101730.91;;;5.71;100.00
48352;BME280;34163;49.314;6.752;2023-02-10T23:04:17;101739.72;;;5.73;100.00
48352;BME280;34163;49.314;6.752;2023-02-10T23:06:45;101734.50;;;5.79;100.00
48352;BME280;34163;49.314;6.752;2023-02-10T23:09:11;101739.78;;;5.83;100.00
48352;BME280;34163;49.314;6.752;2023-02-10T23:11:37;101741.56;;;5.86;100.00
48352;BME280;34163;49.314;6.752;2023-02-10T23:14:07;101746.84;;;5.88;100.00
48352;BME280;34163;49.314;6.752;2023-02-10T23:19:17;101733.75;;;5.94;100.00
48352;BME280;34163;49.314;6.752;2023-02-10T23:21:44;101726.72;;;5.96;100.00
48352;BME280;34163;49.314;6.752;2023-02-10T23:24:09;101728.53;;;5.97;100.00
48352;BME280;34163;49.314;6.752;2023-02-10T23:26:35;101725.97;;;6.03;100.00
48352;BME280;34163;49.314;6.752;2023-02-10T23:29:05;101730.34;;;6.07;100.00
48352;BME280;34163;49.314;6.752;2023-02-10T23:31:31;101723.34;;;6.09;100.00
48352;BME280;34163;49.314;6.752;2023-02-10T23:33:59;101724.22;;;6.08;100.00
48352;BME280;34163;49.314;6.752;2023-02-10T23:36:34;101719.84;;;6.10;100.00
48352;BME280;34163;49.314;6.752;2023-02-10T23:38:59;101715.47;;;6.14;100.00
48352;BME280;34163;49.314;6.752;2023-02-10T23:41:26;101719.03;;;6.17;100.00
48352;BME280;34163;49.314;6.752;2023-02-10T23:43:54;101704.09;;;6.15;100.00
48352;BME280;34163;49.314;6.752;2023-02-10T23:46:19;101715.50;;;6.18;100.00
48352;BME280;34163;49.314;6.752;2023-02-10T23:48:44;101710.25;;;6.20;100.00
48352;BME280;34163;49.314;6.752;2023-02-10T23:51:11;101700.59;;;6.24;100.00
48352;BME280;34163;49.314;6.752;2023-02-10T23:53:37;101698.88;;;6.23;100.00
48352;BME280;34163;49.314;6.752;2023-02-10T23:56:05;101701.53;;;6.27;100.00
48352;BME280;34163;49.314;6.752;2023-02-10T23:58:39;101696.25;;;6.26;100.00
